Time;durP1;ratioP1;P1;durP2;ratioP2;P2;SDS_P1;SDS_P2;PMS_P1;PMS_P2;Temp;Humidity;BMP_temperature;BMP_pressure;BME280_temperature;BME280_humidity;BME280_pressure;Samples;Min_cycle;Max_cycle;Signal;HPM_P1;HPM_P2
2022/04/09 08:35:08;;;;;;;;;;;13.70;67.10;;;;;;5020778;27;1423354;-52
2022/04/09 08:37:35;;;;;;;;;;;13.70;67.50;;;;;;5068085;27;79932;-54
2022/04/09 08:40:01;;;;;;;;;;;13.80;67.50;;;;;;5067021;27;80548;-50
2022/04/09 08:42:28;;;;;;;;;;;13.80;67.00;;;;;;5067700;27;80570;-51
2022/04/09 08:44:53;;;;;;;;;;;14.00;67.00;;;;;;5067131;27;80116;-54
2022/04/09 08:47:19;;;;;;;;;;;14.10;66.50;;;;;;5068108;27;80161;-50
2022/04/09 08:49:46;;;;;;;;;;;14.10;66.20;;;;;;5067711;27;81722;-51
2022/04/09 08:52:12;;;;;;;;;;;14.20;65.90;;;;;;5067814;27;80056;-51
2022/04/09 08:54:39;;;;;;;;;;;14.20;65.50;;;;;;5070339;27;80159;-51
2022/04/09 08:57:04;;;;;;;;;;;14.30;65.50;;;;;;5067801;27;80016;-51
2022/04/09 08:59:30;;;;;;;;;;;14.30;65.20;;;;;;5067749;27;80435;-52
2022/04/09 09:01:56;;;;;;;;;;;14.30;65.00;;;;;;5067430;27;81039;-51
2022/04/09 09:04:21;;;;;;;;;;;14.30;64.90;;;;;;5067538;27;80345;-51
2022/04/09 09:06:47;;;;;;;;;;;14.30;65.10;;;;;;5067535;27;81508;-51
2022/04/09 09:09:29;;;;;;;;;;;14.40;65.10;;;;;;5067537;27;80309;-51
2022/04/09 09:11:55;;;;;;;;;;;14.40;65.00;;;;;;5067380;27;80063;-51
2022/04/09 09:14:28;;;;;;;;;;;14.50;65.00;;;;;;5067407;27;81024;-51
2022/04/09 09:16:55;;;;;;;;;;;14.40;65.10;;;;;;5070014;27;80963;-51
2022/04/09 09:19:21;;;;;;;;;;;14.50;65.20;;;;;;5067309;27;81312;-51
2022/04/09 09:21:54;;;;;;;;;;;14.50;65.10;;;;;;5067046;27;81858;-51
2022/04/09 09:24:20;;;;;;;;;;;14.50;65.10;;;;;;5067249;27;80202;-51
2022/04/09 09:26:45;;;;;;;;;;;14.50;65.30;;;;;;5067512;27;80249;-53
2022/04/09 09:29:23;;;;;;;;;;;14.50;65.30;;;;;;5066998;27;81786;-51
2022/04/09 09:31:50;;;;;;;;;;;14.60;65.40;;;;;;5067108;27;80107;-51
2022/04/09 09:34:17;;;;;;;;;;;14.60;65.50;;;;;;5067017;27;80032;-51
2022/04/09 09:36:46;;;;;;;;;;;14.60;65.30;;;;;;5066996;27;80994;-51
2022/04/09 09:39:13;;;;;;;;;;;14.60;65.30;;;;;;5069800;27;80002;-51
2022/04/09 09:41:58;;;;;;;;;;;14.60;65.50;;;;;;5066917;27;81088;-51
2022/04/09 09:44:27;;;;;;;;;;;14.60;65.40;;;;;;5065143;27;80127;-50
2022/04/09 09:46:53;;;;;;;;;;;14.70;65.50;;;;;;5053320;28;80532;-55
2022/04/09 09:49:20;;;;;;;;;;;14.70;65.10;;;;;;5053105;28;81754;-54
2022/04/09 09:52:02;;;;;;;;;;;14.70;65.20;;;;;;5053227;28;80227;-53
2022/04/09 09:54:28;;;;;;;;;;;14.70;65.20;;;;;;5053191;28;81291;-50
2022/04/09 09:56:55;;;;;;;;;;;14.70;65.40;;;;;;5053253;28;81714;-51
2022/04/09 09:59:21;;;;;;;;;;;14.70;65.30;;;;;;5053187;28;80394;-50
2022/04/09 10:01:47;;;;;;;;;;;14.70;65.20;;;;;;5055662;28;80373;-52
2022/04/09 10:04:13;;;;;;;;;;;14.70;65.00;;;;;;5053193;28;80167;-51
2022/04/09 10:06:39;;;;;;;;;;;14.70;65.10;;;;;;5053148;28;81356;-51
2022/04/09 10:09:05;;;;;;;;;;;14.80;65.20;;;;;;5053058;28;80878;-51
2022/04/09 10:11:42;;;;;;;;;;;14.80;65.00;;;;;;5052302;28;80336;-51
2022/04/09 10:14:08;;;;;;;;;;;14.90;64.90;;;;;;5052737;28;81463;-51
2022/04/09 10:16:34;;;;;;;;;;;14.90;65.00;;;;;;5052852;28;81642;-52
2022/04/09 10:19:01;;;;;;;;;;;14.90;64.70;;;;;;5053173;28;80104;-51
2022/04/09 10:21:31;;;;;;;;;;;14.90;65.00;;;;;;5052787;28;81681;-51
2022/04/09 10:23:58;;;;;;;;;;;14.90;65.10;;;;;;5055753;28;80667;-51
2022/04/09 10:26:24;;;;;;;;;;;14.90;65.00;;;;;;5052799;28;80506;-52
2022/04/09 10:28:51;;;;;;;;;;;14.90;64.90;;;;;;5052548;28;81792;-51
2022/04/09 10:31:22;;;;;;;;;;;14.90;65.00;;;;;;5052672;28;80235;-51
2022/04/09 10:33:55;;;;;;;;;;;14.90;65.00;;;;;;5052053;28;80368;-51
2022/04/09 10:36:40;;;;;;;;;;;15.00;64.80;;;;;;5052363;28;81692;-51
2022/04/09 10:39:21;;;;;;;;;;;15.00;64.60;;;;;;5052533;28;80290;-51
2022/04/09 10:41:47;;;;;;;;;;;15.00;65.00;;;;;;5052412;28;80420;-51
2022/04/09 10:44:33;;;;;;;;;;;15.00;64.90;;;;;;5052482;28;79988;-52
2022/04/09 10:47:00;;;;;;;;;;;15.10;64.90;;;;;;5054833;28;80008;-51
2022/04/09 10:49:27;;;;;;;;;;;15.10;64.80;;;;;;5052202;28;80827;-51
2022/04/09 10:51:57;;;;;;;;;;;15.10;64.50;;;;;;5052326;28;80169;-51
2022/04/09 10:54:22;;;;;;;;;;;15.10;64.60;;;;;;5051557;28;80380;-51
2022/04/09 10:56:48;;;;;;;;;;;15.20;64.70;;;;;;5051251;28;80416;-51
2022/04/09 10:59:16;;;;;;;;;;;15.10;64.70;;;;;;5052560;28;80092;-55
2022/04/09 11:01:51;;;;;;;;;;;15.20;64.80;;;;;;5052108;28;81156;-52
2022/04/09 11:04:25;;;;;;;;;;;15.20;64.90;;;;;;5051955;28;80736;-52
2022/04/09 11:07:09;;;;;;;;;;;15.20;64.80;;;;;;5054789;28;80164;-52
2022/04/09 11:09:48;;;;;;;;;;;15.20;64.80;;;;;;5051846;28;81568;-51
2022/04/09 11:12:14;;;;;;;;;;;15.30;64.70;;;;;;5052048;28;80107;-52
2022/04/09 11:14:47;;;;;;;;;;;15.30;64.70;;;;;;5052168;28;80195;-51
2022/04/09 11:17:16;;;;;;;;;;;15.30;64.60;;;;;;5051839;28;81774;-51
2022/04/09 11:19:42;;;;;;;;;;;15.30;64.60;;;;;;5051919;28;80183;-52
2022/04/09 11:22:09;;;;;;;;;;;15.30;64.50;;;;;;5051939;28;81279;-51
2022/04/09 11:24:37;;;;;;;;;;;15.40;64.30;;;;;;5051744;28;80624;-53
2022/04/09 11:27:03;;;;;;;;;;;15.40;64.20;;;;;;5051847;28;80185;-53
2022/04/09 11:29:35;;;;;;;;;;;15.40;64.00;;;;;;5054579;28;80400;-56
2022/04/09 11:32:02;;;;;;;;;;;15.40;64.10;;;;;;5051736;28;80135;-51
2022/04/09 11:34:28;;;;;;;;;;;15.40;64.10;;;;;;5051246;28;81382;-51
2022/04/09 11:37:09;;;;;;;;;;;15.50;64.10;;;;;;5051536;28;81491;-51
2022/04/09 11:39:39;;;;;;;;;;;15.50;64.00;;;;;;5051583;28;80261;-51
2022/04/09 11:42:05;;;;;;;;;;;15.50;64.10;;;;;;5051857;28;80024;-51
2022/04/09 11:44:30;;;;;;;;;;;15.50;64.00;;;;;;5051381;28;81173;-53
2022/04/09 11:46:58;;;;;;;;;;;15.50;63.90;;;;;;5051791;28;80157;-51
2022/04/09 11:49:30;;;;;;;;;;;15.50;63.80;;;;;;5051691;28;80805;-52
2022/04/09 11:51:56;;;;;;;;;;;15.50;63.70;;;;;;5054265;28;81261;-51
2022/04/09 11:54:21;;;;;;;;;;;15.60;63.80;;;;;;5051483;28;81301;-51
2022/04/09 11:56:47;;;;;;;;;;;15.60;63.90;;;;;;5050811;28;81671;-52
2022/04/09 11:59:16;;;;;;;;;;;15.60;63.80;;;;;;5051089;28;80082;-52
2022/04/09 12:01:45;;;;;;;;;;;15.60;63.70;;;;;;5051114;28;80078;-53
2022/04/09 12:04:11;;;;;;;;;;;15.60;63.90;;;;;;5050708;28;80958;-52
2022/04/09 12:06:37;;;;;;;;;;;15.70;63.70;;;;;;5050915;28;80172;-52
2022/04/09 12:09:03;;;;;;;;;;;15.70;63.70;;;;;;5050779;28;80293;-52
2022/04/09 12:11:28;;;;;;;;;;;15.80;63.70;;;;;;5050356;28;81042;-55
2022/04/09 12:13:54;;;;;;;;;;;15.70;63.60;;;;;;5053217;28;80092;-53
2022/04/09 12:16:19;;;;;;;;;;;15.80;63.70;;;;;;5050577;28;81811;-52
2022/04/09 12:18:46;;;;;;;;;;;15.70;63.40;;;;;;5050441;28;80063;-53
2022/04/09 12:21:18;;;;;;;;;;;15.80;63.40;;;;;;5050640;28;81318;-53
2022/04/09 12:23:45;;;;;;;;;;;15.80;63.60;;;;;;5050447;28;81770;-51
2022/04/09 12:26:20;;;;;;;;;;;15.80;63.40;;;;;;5050467;28;80069;-51
2022/04/09 12:28:46;;;;;;;;;;;15.80;63.20;;;;;;5049894;28;80534;-53
2022/04/09 12:31:24;;;;;;;;;;;15.90;63.30;;;;;;5050500;28;80760;-54
2022/04/09 12:33:59;;;;;;;;;;;15.90;63.30;;;;;;5050303;28;80085;-52
2022/04/09 12:36:25;;;;;;;;;;;15.90;63.40;;;;;;5052654;28;80627;-54
2022/04/09 12:38:50;;;;;;;;;;;15.90;63.40;;;;;;5050414;28;80235;-52
2022/04/09 12:41:16;;;;;;;;;;;16.00;63.50;;;;;;5050678;28;80048;-52
2022/04/09 12:43:42;;;;;;;;;;;16.00;63.50;;;;;;5049034;28;82566;-52
2022/04/09 12:46:09;;;;;;;;;;;16.00;63.40;;;;;;5049915;28;81015;-54
2022/04/09 12:48:38;;;;;;;;;;;16.00;63.30;;;;;;5048921;28;82268;-56
2022/04/09 12:51:04;;;;;;;;;;;16.00;63.30;;;;;;5049110;28;81880;-52
2022/04/09 12:53:30;;;;;;;;;;;16.10;63.20;;;;;;5048811;28;83006;-54
2022/04/09 12:55:56;;;;;;;;;;;16.10;63.10;;;;;;5051570;28;83818;-53
2022/04/09 12:58:22;;;;;;;;;;;16.10;63.30;;;;;;5049114;28;81834;-54
2022/04/09 13:00:47;;;;;;;;;;;16.10;63.10;;;;;;5048780;28;82050;-55
2022/04/09 13:03:13;;;;;;;;;;;16.10;63.20;;;;;;5049027;28;82476;-54
2022/04/09 13:05:41;;;;;;;;;;;16.10;63.10;;;;;;5048520;28;81778;-53
2022/04/09 13:08:06;;;;;;;;;;;16.20;63.20;;;;;;5049019;28;82953;-55
2022/04/09 13:10:34;;;;;;;;;;;16.20;63.30;;;;;;5049464;28;81631;-52
2022/04/09 13:13:00;;;;;;;;;;;16.20;63.20;;;;;;5048770;28;81826;-54
2022/04/09 13:15:26;;;;;;;;;;;16.30;63.20;;;;;;5048668;28;83069;-52
2022/04/09 13:17:51;;;;;;;;;;;16.30;63.10;;;;;;5050946;28;82722;-52
2022/04/09 13:20:18;;;;;;;;;;;16.30;63.10;;;;;;5049735;27;83938;-55
2022/04/09 13:22:43;;;;;;;;;;;16.30;63.20;;;;;;5051999;28;83520;-52
2022/04/09 13:25:09;;;;;;;;;;;16.30;63.00;;;;;;5052211;28;82253;-54
2022/04/09 13:27:35;;;;;;;;;;;16.30;63.10;;;;;;5052083;28;81752;-53
2022/04/09 13:30:01;;;;;;;;;;;16.30;63.20;;;;;;5052030;28;82718;-52
2022/04/09 13:32:29;;;;;;;;;;;16.40;63.10;;;;;;5052179;28;81762;-54
2022/04/09 13:34:54;;;;;;;;;;;16.40;63.10;;;;;;5052283;28;81060;-52
2022/04/09 13:37:20;;;;;;;;;;;16.40;62.90;;;;;;5051813;28;83532;-51
2022/04/09 13:39:46;;;;;;;;;;;16.50;63.00;;;;;;5054114;28;81778;-55
2022/04/09 13:42:12;;;;;;;;;;;16.50;62.90;;;;;;5050800;28;84864;-55
2022/04/09 13:44:43;;;;;;;;;;;16.50;62.70;;;;;;5051994;28;81813;-53
2022/04/09 13:47:10;;;;;;;;;;;16.60;62.70;;;;;;5051825;28;82265;-53
2022/04/09 13:49:36;;;;;;;;;;;16.60;62.60;;;;;;5051600;28;83531;-54
2022/04/09 13:52:03;;;;;;;;;;;16.60;62.60;;;;;;5051670;28;81807;-53
2022/04/09 13:54:29;;;;;;;;;;;16.60;62.50;;;;;;5051681;28;82130;-56
2022/04/09 13:56:54;;;;;;;;;;;16.60;62.40;;;;;;5051508;28;82419;-52
2022/04/09 13:59:20;;;;;;;;;;;16.70;62.40;;;;;;5052280;28;80944;-56
2022/04/09 14:01:45;;;;;;;;;;;16.70;62.50;;;;;;5054557;28;82065;-55
2022/04/09 14:04:11;;;;;;;;;;;16.70;62.40;;;;;;5051877;28;82155;-53
2022/04/09 14:06:36;;;;;;;;;;;16.80;62.30;;;;;;5051466;28;83001;-54
2022/04/09 14:09:03;;;;;;;;;;;16.80;62.20;;;;;;5051276;28;82582;-52
2022/04/09 14:11:29;;;;;;;;;;;16.90;62.50;;;;;;5051391;28;81741;-56
2022/04/09 14:13:54;;;;;;;;;;;16.90;61.70;;;;;;5051636;28;81847;-55
2022/04/09 14:16:20;;;;;;;;;;;17.00;61.90;;;;;;5051056;28;83703;-52
2022/04/09 14:18:46;;;;;;;;;;;17.00;61.40;;;;;;5050785;28;81783;-53
2022/04/09 14:21:12;;;;;;;;;;;17.00;61.60;;;;;;5051204;28;83002;-54
2022/04/09 14:23:38;;;;;;;;;;;17.10;61.60;;;;;;5054504;28;81716;-54
2022/04/09 14:26:03;;;;;;;;;;;17.10;61.70;;;;;;5051142;28;82012;-54
2022/04/09 14:28:29;;;;;;;;;;;17.10;61.40;;;;;;5050914;28;83598;-52
2022/04/09 14:30:54;;;;;;;;;;;17.20;61.60;;;;;;5050661;27;83092;-56
2022/04/09 14:33:21;;;;;;;;;;;17.20;61.40;;;;;;5050852;28;84221;-55
2022/04/09 14:35:50;;;;;;;;;;;17.30;61.30;;;;;;5050679;28;83493;-51
2022/04/09 14:38:16;;;;;;;;;;;17.30;61.20;;;;;;5050844;28;81712;-52
2022/04/09 14:40:42;;;;;;;;;;;17.30;61.30;;;;;;5050960;28;83170;-55
2022/04/09 14:43:08;;;;;;;;;;;17.30;61.10;;;;;;5051054;28;83500;-55
2022/04/09 14:45:33;;;;;;;;;;;17.30;61.50;;;;;;5053560;28;81808;-54
2022/04/09 14:47:59;;;;;;;;;;;17.30;61.50;;;;;;5051145;28;82701;-55
2022/04/09 14:50:25;;;;;;;;;;;17.40;61.20;;;;;;5050244;28;82436;-54
2022/04/09 14:52:50;;;;;;;;;;;17.30;61.30;;;;;;5050716;28;82930;-54
2022/04/09 14:55:16;;;;;;;;;;;17.40;61.40;;;;;;5049946;28;83367;-55
2022/04/09 14:57:41;;;;;;;;;;;17.40;61.30;;;;;;5050690;28;81808;-54
2022/04/09 15:00:09;;;;;;;;;;;17.40;61.00;;;;;;5050833;28;82170;-54
2022/04/09 15:02:36;;;;;;;;;;;17.40;61.20;;;;;;5050466;28;83532;-53
2022/04/09 15:05:06;;;;;;;;;;;17.30;61.40;;;;;;5052815;28;81947;-52
2022/04/09 15:07:31;;;;;;;;;;;17.40;61.00;;;;;;5050315;28;83686;-53
2022/04/09 15:09:57;;;;;;;;;;;17.40;61.30;;;;;;5050698;28;81838;-52
2022/04/09 15:12:23;;;;;;;;;;;17.40;61.80;;;;;;5050881;28;82843;-53
2022/04/09 15:14:49;;;;;;;;;;;17.40;61.50;;;;;;5049983;28;83610;-52
2022/04/09 15:17:14;;;;;;;;;;;17.40;61.20;;;;;;5050690;28;81906;-55
2022/04/09 15:19:40;;;;;;;;;;;17.40;61.10;;;;;;5049728;28;82856;-56
2022/04/09 15:22:06;;;;;;;;;;;17.50;61.30;;;;;;5050139;28;83580;-56
2022/04/09 15:24:34;;;;;;;;;;;17.50;61.30;;;;;;5050066;28;81787;-52
2022/04/09 15:26:59;;;;;;;;;;;17.50;61.10;;;;;;5052766;28;82143;-56
2022/04/09 15:29:25;;;;;;;;;;;17.50;61.20;;;;;;5050243;28;81876;-52
2022/04/09 15:31:51;;;;;;;;;;;17.60;61.50;;;;;;5050087;28;83001;-55
2022/04/09 15:34:17;;;;;;;;;;;17.60;61.30;;;;;;5049395;28;82632;-52
2022/04/09 15:36:42;;;;;;;;;;;17.60;61.40;;;;;;5050866;28;81070;-53
2022/04/09 15:39:08;;;;;;;;;;;17.50;61.20;;;;;;5050413;28;81806;-53
2022/04/09 15:41:34;;;;;;;;;;;17.60;61.20;;;;;;5050117;28;83216;-53
2022/04/09 15:44:00;;;;;;;;;;;17.60;61.40;;;;;;5048862;28;82888;-54
2022/04/09 15:46:25;;;;;;;;;;;17.60;61.40;;;;;;5050086;28;82644;-54
2022/04/09 15:48:52;;;;;;;;;;;17.60;61.60;;;;;;5052445;28;83329;-53
2022/04/09 15:51:18;;;;;;;;;;;17.60;61.40;;;;;;5050047;28;82193;-54
2022/04/09 15:53:44;;;;;;;;;;;17.60;61.50;;;;;;5049780;28;81848;-52
2022/04/09 15:56:09;;;;;;;;;;;17.60;61.30;;;;;;5049732;28;81843;-54
2022/04/09 15:58:35;;;;;;;;;;;17.60;61.70;;;;;;5049918;28;82734;-52
2022/04/09 16:01:00;;;;;;;;;;;17.60;61.60;;;;;;5050063;28;81827;-53
2022/04/09 16:03:28;;;;;;;;;;;17.60;61.50;;;;;;5050040;28;81889;-52
2022/04/09 16:05:54;;;;;;;;;;;17.70;61.10;;;;;;5049619;28;83015;-54
2022/04/09 16:08:20;;;;;;;;;;;17.80;61.00;;;;;;5049065;28;82757;-52
2022/04/09 16:10:45;;;;;;;;;;;17.80;60.70;;;;;;5052617;28;81911;-52
2022/04/09 16:13:11;;;;;;;;;;;17.80;60.70;;;;;;5049603;28;82520;-53
2022/04/09 16:15:40;;;;;;;;;;;17.90;60.60;;;;;;5049570;28;81802;-55
2022/04/09 16:18:05;;;;;;;;;;;17.90;60.50;;;;;;5049489;28;82327;-55
2022/04/09 16:20:32;;;;;;;;;;;18.00;60.30;;;;;;5049747;28;82341;-56
2022/04/09 16:23:00;;;;;;;;;;;17.90;60.20;;;;;;5049690;28;81853;-52
2022/04/09 16:25:25;;;;;;;;;;;17.90;60.40;;;;;;5049825;28;82785;-56
2022/04/09 16:27:51;;;;;;;;;;;18.00;60.20;;;;;;5049421;28;82589;-53
2022/04/09 16:30:17;;;;;;;;;;;17.90;60.30;;;;;;5049739;28;81797;-54
2022/04/09 16:32:42;;;;;;;;;;;18.00;60.30;;;;;;5051539;28;82700;-55
2022/04/09 16:35:08;;;;;;;;;;;17.90;60.40;;;;;;5049264;28;81804;-53
2022/04/09 16:37:33;;;;;;;;;;;18.00;60.60;;;;;;5049267;28;82944;-54
2022/04/09 16:39:59;;;;;;;;;;;18.00;60.40;;;;;;5049349;28;82969;-52
2022/04/09 16:42:25;;;;;;;;;;;17.90;60.60;;;;;;5049186;28;81885;-54
2022/04/09 16:44:51;;;;;;;;;;;18.00;60.60;;;;;;5049206;28;82975;-52
2022/04/09 16:47:17;;;;;;;;;;;17.90;60.70;;;;;;5048922;28;82399;-52
2022/04/09 16:49:44;;;;;;;;;;;17.90;60.60;;;;;;5049571;28;81085;-56
2022/04/09 16:52:13;;;;;;;;;;;17.90;60.90;;;;;;5048969;28;82265;-54
2022/04/09 16:54:42;;;;;;;;;;;17.90;60.90;;;;;;5051478;27;83024;-53
2022/04/09 16:57:07;;;;;;;;;;;17.90;61.70;;;;;;5051921;28;82785;-53
2022/04/09 16:59:33;;;;;;;;;;;18.00;61.20;;;;;;5052478;28;81731;-52
2022/04/09 17:01:59;;;;;;;;;;;18.00;61.10;;;;;;5052503;28;81817;-53
2022/04/09 17:04:24;;;;;;;;;;;18.00;61.30;;;;;;5052367;28;82016;-54
2022/04/09 17:06:50;;;;;;;;;;;17.90;61.30;;;;;;5052019;28;83031;-54
2022/04/09 17:09:16;;;;;;;;;;;17.90;61.30;;;;;;5052423;28;81770;-54
2022/04/09 17:11:42;;;;;;;;;;;17.90;61.00;;;;;;5052310;28;82986;-53
2022/04/09 17:14:07;;;;;;;;;;;17.90;61.20;;;;;;5055429;28;82710;-53
2022/04/09 17:16:33;;;;;;;;;;;17.90;61.10;;;;;;5052229;28;82244;-52
2022/04/09 17:18:59;;;;;;;;;;;17.90;61.20;;;;;;5051900;28;83456;-53
2022/04/09 17:21:25;;;;;;;;;;;17.90;60.90;;;;;;5051735;28;82685;-55
2022/04/09 17:23:51;;;;;;;;;;;17.90;61.00;;;;;;5052064;28;83826;-52
2022/04/09 17:26:17;;;;;;;;;;;17.90;61.30;;;;;;5051850;28;83267;-52
2022/04/09 17:28:43;;;;;;;;;;;17.90;61.30;;;;;;5052264;28;81796;-52
2022/04/09 17:31:08;;;;;;;;;;;17.90;61.40;;;;;;5052202;28;81778;-52
2022/04/09 17:33:34;;;;;;;;;;;17.90;61.40;;;;;;5051482;28;82180;-53
2022/04/09 17:35:59;;;;;;;;;;;17.90;61.60;;;;;;5054661;28;81851;-52
2022/04/09 17:38:25;;;;;;;;;;;17.90;61.50;;;;;;5052194;28;81864;-54
2022/04/09 17:40:52;;;;;;;;;;;17.90;61.50;;;;;;5051836;28;81745;-53
2022/04/09 17:43:17;;;;;;;;;;;17.90;61.50;;;;;;5051717;28;83202;-52
2022/04/09 17:45:43;;;;;;;;;;;17.90;61.60;;;;;;5050769;28;84458;-52
2022/04/09 17:48:11;;;;;;;;;;;17.90;61.50;;;;;;5051625;28;81935;-54
2022/04/09 17:50:37;;;;;;;;;;;17.90;61.50;;;;;;5051628;28;81819;-54
2022/04/09 17:53:02;;;;;;;;;;;17.90;61.40;;;;;;5051388;28;82386;-54
2022/04/09 17:55:28;;;;;;;;;;;17.90;61.40;;;;;;5051576;28;82326;-52
2022/04/09 17:57:53;;;;;;;;;;;17.90;61.40;;;;;;5054125;28;83248;-52
2022/04/09 18:00:19;;;;;;;;;;;17.90;61.40;;;;;;5051799;28;81855;-52
2022/04/09 18:02:45;;;;;;;;;;;17.80;61.00;;;;;;5051947;28;82811;-54
2022/04/09 18:05:10;;;;;;;;;;;17.90;61.10;;;;;;5051211;28;82552;-53
2022/04/09 18:07:36;;;;;;;;;;;17.80;60.90;;;;;;5051256;27;82157;-54
2022/04/09 18:10:02;;;;;;;;;;;17.80;61.00;;;;;;5051226;28;82992;-52
2022/04/09 18:12:28;;;;;;;;;;;17.80;60.90;;;;;;5051157;28;82426;-53
2022/04/09 18:14:54;;;;;;;;;;;17.80;61.00;;;;;;5051189;28;81768;-52
2022/04/09 18:17:19;;;;;;;;;;;17.80;61.00;;;;;;5051591;28;81880;-53
2022/04/09 18:19:45;;;;;;;;;;;17.90;61.00;;;;;;5053706;28;83535;-52
2022/04/09 18:22:11;;;;;;;;;;;17.90;61.10;;;;;;5051213;28;82216;-52
2022/04/09 18:24:37;;;;;;;;;;;17.90;61.10;;;;;;5050925;28;83372;-54
2022/04/09 18:27:03;;;;;;;;;;;17.80;61.10;;;;;;5051655;28;80962;-52
2022/04/09 18:29:29;;;;;;;;;;;17.90;61.20;;;;;;5051027;28;82238;-53
2022/04/09 18:31:54;;;;;;;;;;;17.80;61.20;;;;;;5051277;28;81789;-52
2022/04/09 18:34:20;;;;;;;;;;;17.80;61.20;;;;;;5049617;28;82776;-53
2022/04/09 18:36:46;;;;;;;;;;;17.90;61.30;;;;;;5051128;28;83169;-51
2022/04/09 18:39:11;;;;;;;;;;;17.80;61.20;;;;;;5050713;28;83554;-53
2022/04/09 18:41:37;;;;;;;;;;;17.80;61.30;;;;;;5053881;28;81813;-53
2022/04/09 18:44:02;;;;;;;;;;;17.80;61.30;;;;;;5050842;28;82952;-52
2022/04/09 18:46:28;;;;;;;;;;;17.80;61.30;;;;;;5050759;28;81835;-52
2022/04/09 18:48:54;;;;;;;;;;;17.80;61.30;;;;;;5050855;28;81765;-56
2022/04/09 18:51:20;;;;;;;;;;;17.80;61.30;;;;;;5050609;28;81114;-54
2022/04/09 18:53:50;;;;;;;;;;;17.80;61.20;;;;;;5050620;28;81845;-52
2022/04/09 18:56:16;;;;;;;;;;;17.80;61.30;;;;;;5050596;28;83426;-54
2022/04/09 18:58:41;;;;;;;;;;;17.80;61.20;;;;;;5049902;28;83162;-55
2022/04/09 19:01:07;;;;;;;;;;;17.80;61.20;;;;;;5050546;28;81835;-55
2022/04/09 19:03:33;;;;;;;;;;;17.80;61.10;;;;;;5053023;28;82901;-52
2022/04/09 19:06:00;;;;;;;;;;;17.80;61.20;;;;;;5050491;28;81936;-54
2022/04/09 19:08:25;;;;;;;;;;;17.80;61.20;;;;;;5050270;28;82503;-52
2022/04/09 19:10:51;;;;;;;;;;;17.80;61.10;;;;;;5050119;28;82881;-52
2022/04/09 19:13:16;;;;;;;;;;;17.80;61.10;;;;;;5050379;28;81842;-52
2022/04/09 19:15:42;;;;;;;;;;;17.70;61.10;;;;;;5050797;28;83084;-52
2022/04/09 19:18:08;;;;;;;;;;;17.80;61.20;;;;;;5049126;27;82599;-52
2022/04/09 19:20:33;;;;;;;;;;;17.80;61.20;;;;;;5050086;28;81822;-55
2022/04/09 19:22:59;;;;;;;;;;;17.70;61.20;;;;;;5052572;28;82755;-56
2022/04/09 19:25:25;;;;;;;;;;;17.80;61.30;;;;;;5050316;28;82136;-53
2022/04/09 19:27:51;;;;;;;;;;;17.70;61.30;;;;;;5050105;28;81968;-53
2022/04/09 19:30:16;;;;;;;;;;;17.70;61.20;;;;;;5050185;28;82348;-54
2022/04/09 19:32:43;;;;;;;;;;;17.70;61.30;;;;;;5050313;28;81804;-52
2022/04/09 19:35:10;;;;;;;;;;;17.70;61.20;;;;;;5049532;28;82077;-53
2022/04/09 19:37:36;;;;;;;;;;;17.70;61.30;;;;;;5050040;28;82994;-53
2022/04/09 19:40:03;;;;;;;;;;;17.70;61.20;;;;;;5050442;28;81036;-52
2022/04/09 19:42:30;;;;;;;;;;;17.70;61.30;;;;;;5049952;28;82659;-52
2022/04/09 19:44:56;;;;;;;;;;;17.70;61.30;;;;;;5052376;28;82997;-52
2022/04/09 19:47:22;;;;;;;;;;;17.70;61.20;;;;;;5049234;28;82643;-52
2022/04/09 19:49:47;;;;;;;;;;;17.70;61.20;;;;;;5049571;28;82417;-52
2022/04/09 19:52:13;;;;;;;;;;;17.70;61.20;;;;;;5050016;28;82231;-53
2022/04/09 19:54:39;;;;;;;;;;;17.70;61.20;;;;;;5049678;28;82824;-53
2022/04/09 19:57:05;;;;;;;;;;;17.70;61.20;;;;;;5049951;28;81724;-53
2022/04/09 19:59:31;;;;;;;;;;;17.70;61.20;;;;;;5049703;28;81798;-56
2022/04/09 20:01:56;;;;;;;;;;;17.70;61.10;;;;;;5049908;28;81904;-51
2022/04/09 20:04:22;;;;;;;;;;;17.60;61.10;;;;;;5049963;28;82533;-52
2022/04/09 20:06:48;;;;;;;;;;;17.60;61.20;;;;;;5052373;28;81931;-52
2022/04/09 20:09:13;;;;;;;;;;;17.60;61.10;;;;;;5049524;28;82502;-52
2022/04/09 20:11:39;;;;;;;;;;;17.60;61.10;;;;;;5048660;28;82980;-53
2022/04/09 20:14:05;;;;;;;;;;;17.60;61.10;;;;;;5049647;28;81890;-52
2022/04/09 20:16:31;;;;;;;;;;;17.60;61.00;;;;;;5049197;28;83275;-52
2022/04/09 20:18:58;;;;;;;;;;;17.60;61.00;;;;;;5049307;28;81917;-53
2022/04/09 20:21:29;;;;;;;;;;;17.60;61.00;;;;;;5049241;28;82859;-54
2022/04/09 20:23:55;;;;;;;;;;;17.60;61.00;;;;;;5049497;28;82414;-51
2022/04/09 20:26:21;;;;;;;;;;;17.60;61.00;;;;;;5049218;28;81848;-53
2022/04/09 20:28:47;;;;;;;;;;;17.60;61.00;;;;;;5052106;28;83492;-53
2022/04/09 20:31:13;;;;;;;;;;;17.60;61.00;;;;;;5049692;28;82182;-53
2022/04/09 20:33:39;;;;;;;;;;;17.60;61.00;;;;;;5048589;28;83116;-51
2022/04/09 20:36:04;;;;;;;;;;;17.50;60.90;;;;;;5048494;28;82692;-51
2022/04/09 20:38:30;;;;;;;;;;;17.50;60.90;;;;;;5049444;28;81819;-52
2022/04/09 20:40:59;;;;;;;;;;;17.60;61.00;;;;;;5049209;28;82208;-52
2022/04/09 20:43:25;;;;;;;;;;;17.50;60.90;;;;;;5048796;28;83520;-52
2022/04/09 20:45:51;;;;;;;;;;;17.50;60.90;;;;;;5049085;28;81813;-52
2022/04/09 20:48:17;;;;;;;;;;;17.50;60.90;;;;;;5049353;28;82000;-52
2022/04/09 20:50:42;;;;;;;;;;;17.50;60.90;;;;;;5051525;28;83534;-53
2022/04/09 20:53:09;;;;;;;;;;;17.50;60.90;;;;;;5049439;28;83028;-56
2022/04/09 20:55:35;;;;;;;;;;;17.50;60.90;;;;;;5048529;28;83535;-52
2022/04/09 20:58:00;;;;;;;;;;;17.50;60.90;;;;;;5049148;28;81815;-51
2022/04/09 21:00:26;;;;;;;;;;;17.50;60.80;;;;;;5048228;28;83000;-52
2022/04/09 21:02:52;;;;;;;;;;;17.50;60.90;;;;;;5048641;28;82735;-53
2022/04/09 21:05:18;;;;;;;;;;;17.50;60.80;;;;;;5049117;28;81854;-52
2022/04/09 21:07:43;;;;;;;;;;;17.50;60.90;;;;;;5049054;28;81858;-52
2022/04/09 21:10:09;;;;;;;;;;;17.40;60.90;;;;;;5048829;28;81796;-52
2022/04/09 21:12:34;;;;;;;;;;;17.40;60.80;;;;;;5051376;28;81874;-52
2022/04/09 21:15:00;;;;;;;;;;;17.40;60.80;;;;;;5048649;28;82351;-53
2022/04/09 21:17:26;;;;;;;;;;;17.40;60.80;;;;;;5049560;28;81492;-53
2022/04/09 21:19:51;;;;;;;;;;;17.40;60.80;;;;;;5048765;28;81927;-52
2022/04/09 21:22:17;;;;;;;;;;;17.40;60.70;;;;;;5048413;28;83574;-52
2022/04/09 21:24:42;;;;;;;;;;;17.40;60.80;;;;;;5047919;28;82746;-52
2022/04/09 21:27:09;;;;;;;;;;;17.40;60.80;;;;;;5048796;28;82984;-52
2022/04/09 21:29:35;;;;;;;;;;;17.30;60.80;;;;;;5048287;28;83516;-52
2022/04/09 21:32:00;;;;;;;;;;;17.40;60.80;;;;;;5051463;28;81800;-52
2022/04/09 21:34:26;;;;;;;;;;;17.40;60.80;;;;;;5048346;28;82888;-52
2022/04/09 21:36:52;;;;;;;;;;;17.30;60.70;;;;;;5049227;28;81844;-52
2022/04/09 21:39:18;;;;;;;;;;;17.30;60.80;;;;;;5049129;28;83036;-51
2022/04/09 21:41:43;;;;;;;;;;;17.30;60.70;;;;;;5051044;28;82818;-52
2022/04/09 21:44:09;;;;;;;;;;;17.30;60.70;;;;;;5052817;28;81843;-52
2022/04/09 21:46:37;;;;;;;;;;;17.30;60.80;;;;;;5052625;28;81814;-52
2022/04/09 21:49:03;;;;;;;;;;;17.30;60.70;;;;;;5051433;28;84693;-51
2022/04/09 21:51:28;;;;;;;;;;;17.30;60.60;;;;;;5052584;28;81984;-51
2022/04/09 21:53:54;;;;;;;;;;;17.30;60.50;;;;;;5054747;28;82962;-53
2022/04/09 21:56:21;;;;;;;;;;;17.30;60.60;;;;;;5052467;28;81909;-52
2022/04/09 21:58:48;;;;;;;;;;;17.20;60.30;;;;;;5051882;28;81834;-52
2022/04/09 22:01:14;;;;;;;;;;;17.20;60.30;;;;;;5051933;28;83419;-51
2022/04/09 22:03:39;;;;;;;;;;;17.20;60.30;;;;;;5052006;28;81851;-51
2022/04/09 22:06:05;;;;;;;;;;;17.20;60.40;;;;;;5052506;28;82863;-52
2022/04/09 22:08:31;;;;;;;;;;;17.20;60.50;;;;;;5052006;28;82414;-51
2022/04/09 22:10:57;;;;;;;;;;;17.20;60.40;;;;;;5051962;28;81766;-52
2022/04/09 22:13:23;;;;;;;;;;;17.20;60.40;;;;;;5051387;28;82734;-51
2022/04/09 22:15:50;;;;;;;;;;;17.10;60.40;;;;;;5054403;28;83278;-52
2022/04/09 22:18:16;;;;;;;;;;;17.10;60.40;;;;;;5051417;28;82254;-51
2022/04/09 22:20:42;;;;;;;;;;;17.10;60.50;;;;;;5051653;28;83330;-51
2022/04/09 22:23:08;;;;;;;;;;;17.10;60.40;;;;;;5051835;28;81779;-51
2022/04/09 22:25:35;;;;;;;;;;;17.10;60.40;;;;;;5051925;28;81893;-52
2022/04/09 22:28:01;;;;;;;;;;;17.10;60.40;;;;;;5051449;28;83643;-53
2022/04/09 22:30:27;;;;;;;;;;;17.10;60.40;;;;;;5052074;28;81047;-51
2022/04/09 22:32:52;;;;;;;;;;;17.10;60.40;;;;;;5051370;28;81815;-52
2022/04/09 22:35:19;;;;;;;;;;;17.10;60.50;;;;;;5051185;28;83580;-52
2022/04/09 22:37:45;;;;;;;;;;;17.10;60.50;;;;;;5053733;28;82733;-52
2022/04/09 22:40:11;;;;;;;;;;;17.00;60.40;;;;;;5051265;28;83459;-54
2022/04/09 22:42:37;;;;;;;;;;;17.00;60.40;;;;;;5051467;28;81988;-56
2022/04/09 22:45:03;;;;;;;;;;;17.00;60.40;;;;;;5051411;28;83074;-54
2022/04/09 22:47:29;;;;;;;;;;;17.00;60.50;;;;;;5051165;28;83203;-53